createdAt,value
2019-03-01T00:02:02.542Z,44.85
2019-03-01T00:04:45.330Z,43.83
2019-03-01T00:07:52.025Z,40.88
2019-03-01T00:10:29.028Z,43.17
2019-03-01T00:13:23.886Z,42.73
2019-03-01T00:16:23.458Z,47.23
2019-03-01T00:19:09.079Z,44.40
2019-03-01T00:22:20.712Z,44.95
2019-03-01T00:25:06.589Z,40.48
2019-03-01T00:27:46.431Z,41.83
2019-03-01T00:31:07.041Z,40.25
2019-03-01T00:34:13.569Z,39.80
2019-03-01T00:36:56.589Z,43.73
2019-03-01T00:40:01.934Z,38.10
2019-03-01T00:42:52.562Z,40.38
2019-03-01T00:45:21.872Z,35.00
2019-03-01T00:47:51.168Z,33.02
2019-03-01T00:50:20.571Z,34.48
2019-03-01T00:52:49.864Z,34.10
2019-03-01T00:55:19.168Z,32.15
2019-03-01T00:57:48.364Z,33.00
2019-03-01T01:00:37.353Z,33.88
2019-03-01T01:03:06.648Z,32.40
2019-03-01T01:05:35.963Z,30.75
2019-03-01T01:08:05.279Z,33.18
2019-03-01T01:10:34.561Z,32.23
2019-03-01T01:13:03.862Z,31.42
2019-03-01T01:15:33.163Z,27.15
2019-03-01T01:18:02.478Z,30.15
2019-03-01T01:20:31.812Z,28.77
2019-03-01T01:23:01.087Z,29.02
2019-03-01T01:25:30.334Z,27.62
2019-03-01T01:27:59.642Z,26.95
2019-03-01T01:30:28.940Z,29.95
2019-03-01T01:32:58.335Z,30.08
2019-03-01T01:35:30.971Z,31.20
2019-03-01T01:38:00.866Z,26.87
2019-03-01T01:40:30.142Z,30.70
2019-03-01T01:42:59.446Z,31.73
2019-03-01T01:45:28.754Z,30.08
2019-03-01T01:47:57.984Z,34.78
2019-03-01T01:50:27.232Z,30.80
2019-03-01T01:52:56.934Z,36.73
2019-03-01T01:55:26.180Z,34.55
2019-03-01T01:57:55.434Z,34.53
2019-03-01T02:00:24.741Z,44.27
2019-03-01T02:02:54.059Z,50.50
2019-03-01T02:05:23.359Z,47.43
2019-03-01T02:07:52.674Z,48.63
2019-03-01T02:10:22.269Z,49.65
2019-03-01T02:12:51.734Z,50.78
2019-03-01T02:15:21.034Z,57.53
2019-03-01T02:17:50.352Z,67.58
2019-03-01T02:20:19.668Z,74.00
2019-03-01T02:22:48.969Z,70.72
2019-03-01T02:25:18.520Z,76.30
2019-03-01T02:27:47.927Z,77.27
2019-03-01T02:30:27.883Z,81.17
2019-03-01T02:32:57.441Z,82.33
2019-03-01T02:35:26.987Z,85.80
2019-03-01T02:37:56.361Z,90.70
2019-03-01T02:40:25.730Z,103.45
2019-03-01T02:42:55.111Z,101.82
2019-03-01T02:45:24.427Z,105.35
2019-03-01T02:47:53.883Z,102.67
2019-03-01T02:50:23.251Z,106.87
2019-03-01T02:52:52.643Z,112.75
2019-03-01T02:55:22.411Z,114.62
2019-03-01T02:58:11.269Z,123.85
2019-03-01T03:00:42.272Z,122.78
2019-03-01T03:03:11.707Z,120.40
2019-03-01T03:05:42.567Z,122.15
2019-03-01T03:08:11.842Z,120.33
2019-03-01T03:10:41.532Z,122.05
2019-03-01T03:13:10.842Z,123.07
2019-03-01T03:15:41.836Z,123.02
2019-03-01T03:18:11.242Z,120.13
2019-03-01T03:20:40.534Z,112.72
2019-03-01T03:23:09.763Z,111.75
2019-03-01T03:25:39.065Z,111.70
2019-03-01T03:28:08.375Z,105.87
2019-03-01T03:30:37.791Z,108.10
2019-03-01T03:33:07.097Z,104.92
2019-03-01T03:35:36.460Z,105.12
2019-03-01T03:38:06.024Z,101.27
2019-03-01T03:40:35.451Z,98.55
2019-03-01T03:43:04.884Z,85.17
2019-03-01T03:45:34.182Z,82.08
2019-03-01T03:48:03.514Z,82.10
2019-03-01T03:50:33.735Z,80.03
2019-03-01T03:53:02.965Z,75.42
2019-03-01T03:55:32.875Z,73.12
2019-03-01T03:58:02.110Z,66.55
2019-03-01T04:00:31.484Z,63.35
2019-03-01T04:03:00.986Z,62.60
2019-03-01T04:05:30.420Z,57.67
2019-03-01T04:07:59.713Z,55.90
2019-03-01T04:10:29.167Z,56.85
2019-03-01T04:12:58.477Z,56.20
2019-03-01T04:15:27.772Z,53.13
2019-03-01T04:17:57.089Z,57.55
2019-03-01T04:20:26.339Z,57.58
2019-03-01T04:22:55.749Z,61.55
2019-03-01T04:25:25.145Z,60.48
2019-03-01T04:27:54.601Z,64.53
2019-03-01T04:30:24.698Z,66.85
2019-03-01T04:32:54.817Z,65.85
2019-03-01T04:35:24.147Z,63.70
2019-03-01T04:37:53.464Z,72.40
2019-03-01T04:40:23.767Z,67.17
2019-03-01T04:42:53.332Z,70.92
2019-03-01T04:45:22.699Z,75.47
2019-03-01T04:47:52.014Z,72.90
2019-03-01T04:50:21.416Z,71.42
2019-03-01T04:52:50.799Z,69.62
2019-03-01T04:55:23.629Z,77.03
2019-03-01T04:57:53.009Z,71.60
2019-03-01T05:00:27.113Z,74.37
2019-03-01T05:02:56.449Z,79.72
2019-03-01T05:05:25.919Z,80.32
2019-03-01T05:07:55.391Z,76.12
2019-03-01T05:10:24.926Z,74.95
2019-03-01T05:12:54.391Z,79.20
2019-03-01T05:15:26.702Z,83.05
2019-03-01T05:17:56.091Z,78.05
2019-03-01T05:20:25.430Z,80.77
2019-03-01T05:22:54.770Z,82.53
2019-03-01T05:25:24.174Z,83.47
2019-03-01T05:27:53.638Z,79.75
2019-03-01T05:30:23.025Z,81.85
2019-03-01T05:32:52.413Z,79.47
2019-03-01T05:35:21.818Z,82.20
2019-03-01T05:37:51.839Z,82.12
2019-03-01T05:40:21.303Z,73.78
2019-03-01T05:42:50.693Z,72.53
2019-03-01T05:45:27.048Z,70.70
2019-03-01T05:47:56.716Z,73.25
2019-03-01T05:50:28.990Z,72.78
2019-03-01T05:53:00.405Z,75.80
2019-03-01T05:55:30.775Z,70.70
2019-03-01T05:58:34.532Z,69.37
2019-03-01T06:01:12.334Z,72.67
2019-03-01T06:04:02.680Z,69.10
2019-03-01T06:06:43.751Z,72.60
2019-03-01T06:09:32.721Z,72.87
2019-03-01T06:12:41.087Z,63.87
2019-03-01T06:15:35.790Z,62.00
2019-03-01T06:18:48.036Z,67.30
2019-03-01T06:21:38.645Z,64.72
2019-03-01T06:24:30.386Z,71.30
2019-03-01T06:27:19.296Z,65.05
2019-03-01T06:30:15.058Z,65.72
2019-03-01T06:32:58.186Z,70.97
2019-03-01T06:35:59.122Z,66.22
2019-03-01T06:39:01.534Z,70.92
2019-03-01T06:41:59.678Z,66.35
2019-03-01T06:44:36.730Z,63.08
2019-03-01T06:47:30.180Z,65.70
2019-03-01T06:50:07.307Z,77.08
2019-03-01T06:52:37.403Z,82.95
2019-03-01T06:55:28.538Z,86.00
2019-03-01T06:58:01.350Z,84.47
2019-03-01T07:00:36.240Z,81.55
2019-03-01T07:03:05.703Z,88.75
2019-03-01T07:05:37.725Z,90.03
2019-03-01T07:08:07.633Z,90.25
2019-03-01T07:10:42.079Z,98.27
2019-03-01T07:13:13.215Z,92.45
2019-03-01T07:15:44.505Z,88.30
2019-03-01T07:18:14.128Z,91.12
2019-03-01T07:20:45.246Z,94.15
2019-03-01T07:23:16.927Z,96.47
2019-03-01T07:25:46.532Z,99.77
2019-03-01T07:28:17.759Z,100.58
2019-03-01T07:30:51.387Z,107.87
2019-03-01T07:33:23.946Z,104.23
2019-03-01T07:35:53.638Z,110.95
2019-03-01T07:38:24.460Z,116.28
2019-03-01T07:40:54.189Z,106.80
2019-03-01T07:43:25.763Z,120.45
2019-03-01T07:45:57.193Z,111.75
2019-03-01T07:48:29.558Z,107.15
2019-03-01T07:51:02.434Z,113.35
2019-03-01T07:53:36.152Z,115.80
2019-03-01T07:56:06.895Z,112.75
2019-03-01T07:58:42.426Z,114.30
2019-03-01T08:01:14.640Z,116.33
2019-03-01T08:03:49.796Z,116.40
2019-03-01T08:06:45.591Z,112.88
2019-03-01T08:09:16.870Z,114.00
2019-03-01T08:11:50.491Z,123.10
2019-03-01T08:17:34.928Z,127.78
2019-03-01T08:20:21.100Z,122.50
2019-03-01T08:23:02.142Z,127.22
2019-03-01T08:25:48.871Z,125.38
2019-03-01T08:28:28.772Z,121.20
2019-03-01T08:40:21.762Z,114.50
2019-03-01T08:43:16.755Z,115.95
2019-03-01T08:45:52.260Z,120.65
2019-03-01T08:48:23.706Z,126.90
2019-03-01T08:50:54.321Z,123.85
2019-03-01T08:53:23.731Z,123.45
2019-03-01T08:55:53.054Z,115.95
2019-03-01T08:58:22.478Z,105.90
2019-03-01T09:00:59.328Z,92.12
2019-03-01T09:03:41.591Z,67.50
2019-03-01T09:06:12.961Z,48.78
2019-03-01T09:08:46.961Z,32.65
2019-03-01T09:11:18.304Z,27.35
2019-03-01T09:13:48.900Z,22.07
2019-03-01T09:16:22.794Z,21.42
2019-03-01T09:18:53.326Z,19.82
2019-03-01T09:21:54.546Z,15.10
2019-03-01T09:24:28.875Z,15.48
2019-03-01T09:27:04.054Z,15.18
2019-03-01T09:29:41.707Z,14.80
2019-03-01T09:35:17.344Z,13.08
2019-03-01T09:37:52.934Z,14.28
2019-03-01T09:40:30.427Z,12.75
2019-03-01T09:43:01.806Z,13.53
2019-03-01T09:48:28.453Z,13.68
2019-03-01T09:54:10.272Z,15.38
2019-03-01T09:56:55.045Z,15.32
2019-03-01T09:59:30.409Z,15.23
2019-03-01T10:04:58.877Z,13.55
2019-03-01T10:07:29.625Z,11.15
2019-03-01T10:10:00.243Z,12.25
2019-03-01T10:12:30.593Z,10.90
2019-03-01T10:17:59.916Z,11.70
2019-03-01T10:20:35.559Z,11.35
2019-03-01T10:23:10.518Z,11.03
2019-03-01T10:25:41.771Z,11.65
2019-03-01T10:28:17.053Z,10.90
2019-03-01T10:30:46.453Z,11.15
2019-03-01T10:33:15.827Z,10.50
2019-03-01T10:35:45.135Z,9.78
2019-03-01T10:38:14.606Z,11.40
2019-03-01T10:40:43.940Z,12.05
2019-03-01T10:43:13.599Z,11.08
2019-03-01T10:45:43.538Z,12.53
2019-03-01T10:48:12.881Z,12.70
2019-03-01T10:50:42.881Z,13.48
2019-03-01T10:53:12.517Z,12.63
2019-03-01T10:55:42.824Z,12.45
2019-03-01T10:58:15.160Z,14.43
2019-03-01T11:00:45.688Z,14.50
2019-03-01T11:03:15.254Z,13.75
2019-03-01T11:05:44.840Z,14.98
2019-03-01T11:08:14.408Z,15.55
2019-03-01T11:10:44.359Z,16.50
2019-03-01T11:13:18.800Z,16.52
2019-03-01T11:15:48.510Z,17.02
2019-03-01T11:18:18.052Z,16.17
2019-03-01T11:20:47.609Z,17.45
2019-03-01T11:23:17.654Z,17.75
2019-03-01T11:25:47.406Z,17.30
2019-03-01T11:28:16.984Z,18.73
2019-03-01T11:30:48.495Z,16.73
2019-03-01T11:33:18.295Z,16.85
2019-03-01T11:35:47.956Z,16.12
2019-03-01T11:38:17.531Z,17.60
2019-03-01T11:40:47.241Z,16.37
2019-03-01T11:43:17.152Z,16.37
2019-03-01T11:45:46.849Z,14.93
2019-03-01T11:48:20.738Z,14.98
2019-03-01T11:50:51.344Z,13.70
2019-03-01T11:53:21.174Z,14.18
2019-03-01T11:55:50.878Z,12.43
2019-03-01T11:58:20.600Z,12.53
2019-03-01T12:00:55.771Z,12.20
2019-03-01T12:03:25.533Z,12.15
2019-03-01T12:05:55.210Z,10.72
2019-03-01T12:08:26.126Z,10.00
2019-03-01T12:10:56.130Z,8.15
2019-03-01T12:13:25.619Z,7.03
2019-03-01T12:15:56.007Z,5.75
2019-03-01T12:18:25.631Z,6.25
2019-03-01T12:20:55.712Z,4.95
2019-03-01T12:23:27.141Z,4.50
2019-03-01T12:25:56.710Z,3.98
2019-03-01T12:28:27.185Z,4.10
2019-03-01T12:30:57.954Z,2.83
2019-03-01T12:33:27.591Z,3.08
2019-03-01T12:36:00.008Z,2.77
2019-03-01T12:38:31.057Z,2.87
2019-03-01T12:41:01.562Z,2.70
2019-03-01T12:43:31.178Z,2.40
2019-03-01T12:46:01.477Z,3.25
2019-03-01T12:48:31.115Z,2.83
2019-03-01T12:51:01.667Z,2.80
2019-03-01T12:53:32.902Z,2.30
2019-03-01T12:56:02.457Z,2.30
2019-03-01T12:58:32.064Z,2.10
2019-03-01T13:01:02.986Z,2.25
2019-03-01T13:03:33.182Z,1.50
2019-03-01T13:06:06.973Z,1.57
2019-03-01T13:08:36.560Z,1.45
2019-03-01T13:11:06.741Z,1.22
2019-03-01T13:13:39.943Z,1.35
2019-03-01T13:16:10.179Z,1.00
2019-03-01T13:18:39.614Z,1.07
2019-03-01T13:21:12.949Z,1.25
2019-03-01T13:23:41.361Z,0.98
2019-03-01T13:26:11.213Z,0.80
2019-03-01T13:28:40.621Z,1.22
2019-03-01T13:31:11.385Z,1.17
2019-03-01T13:33:41.943Z,1.02
2019-03-01T13:36:13.271Z,1.07
2019-03-01T13:38:43.697Z,0.90
2019-03-01T13:41:13.818Z,0.90
2019-03-01T13:43:43.614Z,0.75
2019-03-01T13:46:15.637Z,1.15
2019-03-01T13:52:19.230Z,0.70
2019-03-01T13:54:52.240Z,0.53
2019-03-01T13:57:35.738Z,0.80
2019-03-01T14:00:11.151Z,0.72
2019-03-01T14:02:43.038Z,0.90
2019-03-01T14:05:18.214Z,0.72
2019-03-01T14:19:27.259Z,1.07
2019-03-01T14:24:30.765Z,0.85
2019-03-01T14:27:00.480Z,0.80
2019-03-01T14:29:41.891Z,0.80
2019-03-01T14:32:20.842Z,0.90
2019-03-01T14:35:15.531Z,0.80
2019-03-01T14:38:08.279Z,1.00
2019-03-01T14:40:59.648Z,0.93
2019-03-01T14:43:28.710Z,0.82
2019-03-01T14:46:06.874Z,1.70
2019-03-01T14:48:39.703Z,1.10
2019-03-01T14:51:10.817Z,1.40
2019-03-01T14:53:44.398Z,1.17
2019-03-01T14:56:25.307Z,1.00
2019-03-01T14:58:59.862Z,1.20
2019-03-01T15:01:49.732Z,0.93
2019-03-01T15:04:19.479Z,1.40
2019-03-01T15:06:51.479Z,1.07
2019-03-01T15:09:22.045Z,1.17
2019-03-01T15:11:52.142Z,1.35
2019-03-01T15:15:01.557Z,1.20
2019-03-01T15:17:31.786Z,1.20
2019-03-01T15:20:03.393Z,1.80
2019-03-01T15:22:33.156Z,1.30
2019-03-01T15:25:03.867Z,1.40
2019-03-01T15:27:39.851Z,1.60
2019-03-01T15:30:17.767Z,1.35
2019-03-01T15:32:48.425Z,1.50
2019-03-01T15:35:19.680Z,1.32
2019-03-01T15:37:51.068Z,1.82
2019-03-01T15:40:20.915Z,1.42
2019-03-01T15:42:51.445Z,1.75
2019-03-01T15:45:24.230Z,1.25
2019-03-01T15:47:53.939Z,1.45
2019-03-01T15:53:31.807Z,1.65
2019-03-01T16:02:16.120Z,1.40
2019-03-01T16:13:51.852Z,1.37
2019-03-01T16:22:29.853Z,1.85
2019-03-01T16:30:56.821Z,1.75
2019-03-01T16:33:46.277Z,1.80
2019-03-01T16:37:00.083Z,2.52
2019-03-01T16:42:26.316Z,2.40
2019-03-01T16:45:02.903Z,1.60
2019-03-01T16:50:24.368Z,1.77
2019-03-01T16:52:58.167Z,1.72
2019-03-01T16:55:31.868Z,1.50
2019-03-01T16:58:07.386Z,1.20
2019-03-01T17:00:36.976Z,1.80
2019-03-01T17:09:54.870Z,1.20
2019-03-01T17:12:27.481Z,1.77
2019-03-01T17:15:05.909Z,1.62
2019-03-01T17:17:38.333Z,1.70
2019-03-01T17:20:11.335Z,1.85
2019-03-01T17:22:41.893Z,1.70
2019-03-01T17:25:15.603Z,1.57
2019-03-01T17:27:50.123Z,1.57
2019-03-01T17:30:24.290Z,1.55
2019-03-01T17:32:55.420Z,1.62
2019-03-01T17:35:25.931Z,2.15
2019-03-01T17:37:56.815Z,2.08
2019-03-01T17:40:29.339Z,2.17
2019-03-01T17:42:58.044Z,3.10
2019-03-01T17:45:29.272Z,3.00
2019-03-01T17:47:58.924Z,3.00
2019-03-01T17:53:43.017Z,2.65
2019-03-01T17:56:12.310Z,2.92
2019-03-01T17:58:43.638Z,3.60
2019-03-01T18:01:14.436Z,3.95
2019-03-01T18:03:44.314Z,3.47
2019-03-01T18:06:41.583Z,4.28
2019-03-01T18:12:48.013Z,5.75
2019-03-01T18:15:18.434Z,4.42
2019-03-01T18:20:47.177Z,4.70
2019-03-01T18:32:30.280Z,4.58
2019-03-01T18:35:11.468Z,5.60
2019-03-01T18:37:55.096Z,5.83
2019-03-01T18:40:56.159Z,6.10
2019-03-01T18:43:35.390Z,9.90
2019-03-01T18:46:20.459Z,9.18
2019-03-01T18:48:49.912Z,6.87
2019-03-01T18:51:29.078Z,5.53
2019-03-01T18:54:12.427Z,6.28
2019-03-01T18:56:47.835Z,7.00
2019-03-01T19:09:21.105Z,5.62
2019-03-01T19:12:29.475Z,5.37
2019-03-01T19:18:18.421Z,6.05
2019-03-01T19:21:09.349Z,5.80
2019-03-01T19:23:50.360Z,5.28
2019-03-01T19:26:42.386Z,5.70
2019-03-01T19:29:19.702Z,4.97
2019-03-01T19:32:05.827Z,6.45
2019-03-01T19:40:43.389Z,4.80
2019-03-01T19:43:13.171Z,6.05
2019-03-01T19:45:42.741Z,6.45
2019-03-01T19:48:12.512Z,6.78
2019-03-01T19:50:43.586Z,5.80
2019-03-01T19:53:13.388Z,6.15
2019-03-01T19:55:43.948Z,5.92
2019-03-01T19:58:16.788Z,5.15
2019-03-01T20:00:46.514Z,5.78
2019-03-01T20:03:16.042Z,4.67
2019-03-01T20:05:45.699Z,4.33
2019-03-01T20:08:15.362Z,5.30
2019-03-01T20:10:47.642Z,4.45
2019-03-01T20:13:25.732Z,4.80
2019-03-01T20:16:03.628Z,5.12
2019-03-01T20:18:36.291Z,4.42
2019-03-01T20:21:10.539Z,4.90
2019-03-01T20:23:42.409Z,5.45
2019-03-01T20:26:14.291Z,5.50
2019-03-01T20:28:43.931Z,4.15
2019-03-01T20:31:15.224Z,4.37
2019-03-01T20:33:44.948Z,4.65
2019-03-01T20:36:17.690Z,5.30
2019-03-01T20:38:45.687Z,5.40
2019-03-01T20:41:15.378Z,4.75
2019-03-01T20:43:44.871Z,5.83
2019-03-01T20:46:14.750Z,5.87
2019-03-01T20:48:44.408Z,5.22
2019-03-01T20:51:16.059Z,5.85
2019-03-01T20:53:49.329Z,5.25
2019-03-01T20:56:17.207Z,5.58
2019-03-01T20:58:46.744Z,5.12
2019-03-01T21:01:16.341Z,4.53
2019-03-01T21:03:46.774Z,5.33
2019-03-01T21:06:16.214Z,4.45
2019-03-01T21:08:45.615Z,5.37
2019-03-01T21:11:15.247Z,5.03
2019-03-01T21:13:49.112Z,5.90
2019-03-01T21:16:17.568Z,5.33
2019-03-01T21:18:47.742Z,5.33
2019-03-01T21:21:22.123Z,4.55
2019-03-01T21:23:54.320Z,4.83
2019-03-01T21:26:24.135Z,4.85
2019-03-01T21:28:53.761Z,5.20
2019-03-01T21:31:23.146Z,5.70
2019-03-01T21:33:52.617Z,5.92
2019-03-01T21:36:22.911Z,5.58
2019-03-01T21:38:53.288Z,5.47
2019-03-01T21:41:22.825Z,5.87
2019-03-01T21:43:52.369Z,5.50
2019-03-01T21:46:22.340Z,6.20
2019-03-01T21:48:52.013Z,6.28
2019-03-01T21:51:21.510Z,5.92
2019-03-01T21:53:51.720Z,5.97
2019-03-01T21:56:21.220Z,6.22
2019-03-01T21:58:51.331Z,6.22
2019-03-01T22:01:20.871Z,6.42
2019-03-01T22:03:50.429Z,6.53
2019-03-01T22:06:20.590Z,5.92
2019-03-01T22:08:51.038Z,6.95
2019-03-01T22:11:20.987Z,5.55
2019-03-01T22:13:50.422Z,6.40
2019-03-01T22:16:19.863Z,7.17
2019-03-01T22:18:49.570Z,6.35
2019-03-01T22:21:22.594Z,7.05
2019-03-01T22:23:51.531Z,6.47
2019-03-01T22:26:21.758Z,6.72
2019-03-01T22:28:51.172Z,6.97
2019-03-01T22:31:20.558Z,7.10
2019-03-01T22:33:52.622Z,7.08
2019-03-01T22:36:21.212Z,7.50
2019-03-01T22:38:50.643Z,7.58
2019-03-01T22:41:20.037Z,7.83
2019-03-01T22:43:49.430Z,8.33
2019-03-01T22:46:20.996Z,8.08
2019-03-01T22:48:56.155Z,8.78
2019-03-01T22:51:21.303Z,7.83
2019-03-01T22:53:51.404Z,9.00
2019-03-01T22:56:23.071Z,8.38
2019-03-01T22:59:00.111Z,9.93
2019-03-01T23:01:32.719Z,8.28
2019-03-01T23:04:02.674Z,9.10
2019-03-01T23:06:32.179Z,9.28
2019-03-01T23:09:03.460Z,8.65
2019-03-01T23:11:33.701Z,8.95
2019-03-01T23:14:03.182Z,8.98
2019-03-01T23:16:32.682Z,7.95
2019-03-01T23:19:02.431Z,9.33
2019-03-01T23:21:32.673Z,10.70
2019-03-01T23:24:03.333Z,11.03
2019-03-01T23:26:32.804Z,9.83
2019-03-01T23:29:02.255Z,9.73
2019-03-01T23:31:31.922Z,11.85
2019-03-01T23:34:03.617Z,12.78
2019-03-01T23:36:32.462Z,11.25
2019-03-01T23:39:02.043Z,12.55
2019-03-01T23:41:31.998Z,11.50
2019-03-01T23:44:02.808Z,11.78
2019-03-01T23:46:33.620Z,12.73
2019-03-01T23:49:06.498Z,13.03
2019-03-01T23:51:35.942Z,13.43
2019-03-01T23:54:05.637Z,15.58
2019-03-01T23:56:36.586Z,17.10
2019-03-01T23:59:06.015Z,19.10
